Time;durP1;ratioP1;P1;durP2;ratioP2;P2;SDS_P1;SDS_P2;PMS_P1;PMS_P2;Temp;Humidity;BMP_temperature;BMP_pressure;BME280_temperature;BME280_humidity;BME280_pressure;Samples;Min_cycle;Max_cycle;Signal;HPM_P1;HPM_P2
2022/09/27 00:00:20;;;;;;;;;;;21.30;45.00;;;;;;486731;244;1100;-71
2022/09/27 00:02:21;;;;;;;;;;;21.30;45.10;;;;;;486693;244;1218;-71
2022/09/27 00:04:22;;;;;;;;;;;21.30;45.20;;;;;;486668;245;1110;-71
2022/09/27 00:06:24;;;;;;;;;;;21.30;45.10;;;;;;486661;245;1178;-71
2022/09/27 00:08:25;;;;;;;;;;;21.30;45.10;;;;;;486630;245;1157;-71
2022/09/27 00:10:27;;;;;;;;;;;21.40;45.20;;;;;;486707;244;1218;-71
2022/09/27 00:12:28;;;;;;;;;;;21.50;45.10;;;;;;486605;245;1506;-71
2022/09/27 00:14:29;;;;;;;;;;;21.40;45.00;;;;;;486603;244;1148;-71
2022/09/27 00:16:31;;;;;;;;;;;21.40;45.00;;;;;;486729;244;2186;-71
2022/09/27 00:18:32;;;;;;;;;;;21.40;45.20;;;;;;486763;245;1226;-71
2022/09/27 00:20:33;;;;;;;;;;;21.30;45.30;;;;;;486597;244;1104;-71
2022/09/27 00:22:35;;;;;;;;;;;21.20;45.30;;;;;;486925;244;1231;-71
2022/09/27 00:24:36;;;;;;;;;;;21.20;45.60;;;;;;486800;245;1195;-71
2022/09/27 00:26:37;;;;;;;;;;;21.20;45.70;;;;;;486813;245;1115;-71
2022/09/27 00:28:39;;;;;;;;;;;21.30;45.60;;;;;;486817;245;1146;-71
2022/09/27 00:30:40;;;;;;;;;;;21.40;45.40;;;;;;486805;244;1108;-71
2022/09/27 00:32:41;;;;;;;;;;;21.40;45.40;;;;;;486817;245;1144;-71
2022/09/27 00:34:43;;;;;;;;;;;21.30;45.40;;;;;;486808;245;1154;-71
2022/09/27 00:36:44;;;;;;;;;;;21.30;45.50;;;;;;486812;245;2186;-71
2022/09/27 00:38:46;;;;;;;;;;;21.30;45.60;;;;;;486824;245;1052;-71
2022/09/27 00:40:47;;;;;;;;;;;21.20;45.80;;;;;;486831;244;1059;-71
2022/09/27 00:42:48;;;;;;;;;;;21.10;46.00;;;;;;486896;244;1151;-71
2022/09/27 00:44:50;;;;;;;;;;;21.10;46.20;;;;;;486792;245;1226;-71
2022/09/27 00:46:51;;;;;;;;;;;21.20;46.00;;;;;;486836;244;1196;-71
2022/09/27 00:48:52;;;;;;;;;;;21.40;45.80;;;;;;486835;245;1122;-71
2022/09/27 00:50:54;;;;;;;;;;;21.40;45.70;;;;;;486816;244;1188;-71
2022/09/27 00:52:55;;;;;;;;;;;21.40;45.70;;;;;;486796;245;1166;-71
2022/09/27 00:54:56;;;;;;;;;;;21.40;45.90;;;;;;486770;245;1150;-71
2022/09/27 00:56:58;;;;;;;;;;;21.30;46.00;;;;;;486828;244;2206;-71
2022/09/27 00:58:59;;;;;;;;;;;21.30;46.10;;;;;;486759;244;1098;-71
2022/09/27 01:01:01;;;;;;;;;;;21.20;46.20;;;;;;486797;245;1106;-71
2022/09/27 01:03:02;;;;;;;;;;;21.30;46.10;;;;;;486912;244;1154;-71
2022/09/27 01:05:03;;;;;;;;;;;21.40;46.20;;;;;;486797;245;1093;-71
2022/09/27 01:07:05;;;;;;;;;;;21.40;46.00;;;;;;486885;244;1097;-71
2022/09/27 01:09:06;;;;;;;;;;;21.40;45.90;;;;;;486793;245;1206;-71
2022/09/27 01:11:07;;;;;;;;;;;21.40;46.00;;;;;;486802;245;1111;-71
2022/09/27 01:13:09;;;;;;;;;;;21.40;46.20;;;;;;486799;245;1145;-71
2022/09/27 01:15:11;;;;;;;;;;;21.30;46.20;;;;;;486802;245;1106;-71
2022/09/27 01:17:12;;;;;;;;;;;21.20;46.30;;;;;;486769;245;2195;-71
2022/09/27 01:19:13;;;;;;;;;;;21.20;46.50;;;;;;486779;245;1146;-71
2022/09/27 01:21:14;;;;;;;;;;;21.20;46.50;;;;;;486858;244;1185;-71
2022/09/27 01:23:16;;;;;;;;;;;21.20;46.50;;;;;;486805;245;1387;-71
2022/09/27 01:25:17;;;;;;;;;;;21.30;46.60;;;;;;486827;244;1207;-71
2022/09/27 01:27:18;;;;;;;;;;;21.40;46.40;;;;;;486819;244;1184;-71
2022/09/27 01:29:20;;;;;;;;;;;21.40;46.40;;;;;;486763;245;1206;-71
2022/09/27 01:31:21;;;;;;;;;;;21.40;46.40;;;;;;486955;244;1174;-71
2022/09/27 01:33:22;;;;;;;;;;;21.30;46.50;;;;;;486882;244;1189;-71
2022/09/27 01:35:24;;;;;;;;;;;21.30;46.70;;;;;;486820;244;1133;-71
2022/09/27 01:37:25;;;;;;;;;;;21.20;46.70;;;;;;486800;245;2186;-71
2022/09/27 01:39:26;;;;;;;;;;;21.30;46.70;;;;;;486802;244;1134;-71
2022/09/27 01:41:28;;;;;;;;;;;21.30;46.70;;;;;;487003;244;1208;-71
2022/09/27 01:43:29;;;;;;;;;;;21.30;46.70;;;;;;486902;244;1106;-71
2022/09/27 01:45:30;;;;;;;;;;;21.40;46.50;;;;;;486818;244;1267;-71
2022/09/27 01:47:32;;;;;;;;;;;21.40;46.40;;;;;;486866;244;1125;-71
2022/09/27 01:49:33;;;;;;;;;;;21.40;46.50;;;;;;486778;245;1173;-72
2022/09/27 01:51:34;;;;;;;;;;;21.40;46.60;;;;;;486871;244;1105;-71
2022/09/27 01:53:36;;;;;;;;;;;21.40;46.70;;;;;;486834;244;1377;-71
2022/09/27 01:55:37;;;;;;;;;;;21.20;46.90;;;;;;486761;245;1186;-71
2022/09/27 01:57:38;;;;;;;;;;;21.20;47.00;;;;;;486944;244;2186;-71
2022/09/27 01:59:40;;;;;;;;;;;21.30;47.00;;;;;;486758;245;1161;-71
2022/09/27 02:01:41;;;;;;;;;;;21.30;46.80;;;;;;486791;244;1116;-71
2022/09/27 02:03:42;;;;;;;;;;;21.40;46.70;;;;;;486837;244;1230;-71
2022/09/27 02:05:44;;;;;;;;;;;21.40;46.50;;;;;;486891;244;1159;-71
2022/09/27 02:07:45;;;;;;;;;;;21.40;46.60;;;;;;486836;245;1196;-71
2022/09/27 02:09:47;;;;;;;;;;;21.40;46.70;;;;;;486807;245;1148;-71
2022/09/27 02:11:48;;;;;;;;;;;21.30;46.80;;;;;;486814;245;1139;-71
2022/09/27 02:13:49;;;;;;;;;;;21.20;46.90;;;;;;487205;244;1130;-71
2022/09/27 02:15:51;;;;;;;;;;;21.30;47.10;;;;;;487034;244;2182;-71
2022/09/27 02:17:52;;;;;;;;;;;21.30;47.10;;;;;;486827;245;1181;-71
2022/09/27 02:19:54;;;;;;;;;;;21.30;47.00;;;;;;486810;245;1132;-71
2022/09/27 02:21:55;;;;;;;;;;;21.40;47.00;;;;;;487157;244;1162;-71
2022/09/27 02:23:57;;;;;;;;;;;21.30;47.00;;;;;;486784;245;1229;-71
2022/09/27 02:25:58;;;;;;;;;;;21.40;46.90;;;;;;486840;244;1181;-71
2022/09/27 02:27:59;;;;;;;;;;;21.50;46.80;;;;;;486835;244;1154;-71
2022/09/27 02:30:00;;;;;;;;;;;21.50;46.80;;;;;;486845;244;1177;-71
2022/09/27 02:32:02;;;;;;;;;;;21.40;46.80;;;;;;486795;245;1094;-71
2022/09/27 02:34:03;;;;;;;;;;;21.40;47.00;;;;;;486882;244;1104;-71
2022/09/27 02:36:04;;;;;;;;;;;21.30;47.10;;;;;;486794;244;2190;-71
2022/09/27 02:38:06;;;;;;;;;;;21.30;47.20;;;;;;486826;245;1086;-71
2022/09/27 02:40:07;;;;;;;;;;;21.20;47.40;;;;;;486971;244;1165;-71
2022/09/27 02:42:08;;;;;;;;;;;21.10;47.50;;;;;;486819;245;1149;-71
2022/09/27 02:44:10;;;;;;;;;;;21.20;47.50;;;;;;486768;245;1169;-71
2022/09/27 02:46:11;;;;;;;;;;;21.30;47.40;;;;;;486891;244;1141;-71
2022/09/27 02:48:12;;;;;;;;;;;21.30;47.30;;;;;;486817;245;1148;-71
2022/09/27 02:50:15;;;;;;;;;;;21.30;47.30;;;;;;486842;244;1202;-71
2022/09/27 02:52:15;;;;;;;;;;;21.40;47.10;;;;;;486753;245;1407;-71
2022/09/27 02:54:17;;;;;;;;;;;21.50;47.00;;;;;;486794;245;1249;-71
2022/09/27 02:56:18;;;;;;;;;;;21.50;47.00;;;;;;486832;244;2150;-71
2022/09/27 02:58:19;;;;;;;;;;;21.40;47.10;;;;;;486813;245;1212;-71
2022/09/27 03:00:21;;;;;;;;;;;21.40;47.30;;;;;;486788;245;1141;-71
2022/09/27 03:02:22;;;;;;;;;;;21.30;47.40;;;;;;486831;244;1139;-71
2022/09/27 03:04:23;;;;;;;;;;;21.30;47.60;;;;;;486991;244;1127;-71
2022/09/27 03:06:25;;;;;;;;;;;21.20;47.70;;;;;;486804;245;1174;-71
2022/09/27 03:08:26;;;;;;;;;;;21.30;47.70;;;;;;487180;244;1154;-71
2022/09/27 03:10:27;;;;;;;;;;;21.30;47.60;;;;;;486769;245;1396;-71
2022/09/27 03:12:29;;;;;;;;;;;21.40;47.70;;;;;;486814;245;1037;-71
2022/09/27 03:14:30;;;;;;;;;;;21.40;47.40;;;;;;486964;244;1108;-71
2022/09/27 03:16:32;;;;;;;;;;;21.40;47.40;;;;;;486814;244;2205;-71
2022/09/27 03:18:33;;;;;;;;;;;21.40;47.40;;;;;;486788;245;1212;-71
2022/09/27 03:20:34;;;;;;;;;;;21.40;47.50;;;;;;486787;245;1144;-71
2022/09/27 03:22:37;;;;;;;;;;;21.30;47.70;;;;;;486860;244;1131;-71
2022/09/27 03:24:37;;;;;;;;;;;21.20;48.00;;;;;;486816;245;1418;-71
2022/09/27 03:26:38;;;;;;;;;;;21.20;48.20;;;;;;486814;245;1151;-71
2022/09/27 03:28:40;;;;;;;;;;;21.20;48.00;;;;;;486980;244;1115;-71
2022/09/27 03:30:41;;;;;;;;;;;21.30;47.90;;;;;;486746;245;1609;-71
2022/09/27 03:32:42;;;;;;;;;;;21.40;47.80;;;;;;486791;245;1300;-71
2022/09/27 03:34:44;;;;;;;;;;;21.40;47.60;;;;;;486990;244;1055;-71
2022/09/27 03:36:45;;;;;;;;;;;21.40;47.60;;;;;;486815;244;2159;-71
2022/09/27 03:38:46;;;;;;;;;;;21.40;47.70;;;;;;486930;244;1080;-71
2022/09/27 03:40:48;;;;;;;;;;;21.40;47.80;;;;;;486817;244;1081;-71
2022/09/27 03:42:49;;;;;;;;;;;21.30;47.80;;;;;;486920;244;1122;-71
2022/09/27 03:44:50;;;;;;;;;;;21.10;48.00;;;;;;486848;244;1249;-71
2022/09/27 03:46:52;;;;;;;;;;;21.10;48.30;;;;;;486809;245;1336;-71
2022/09/27 03:48:53;;;;;;;;;;;21.10;48.30;;;;;;486994;244;1191;-71
2022/09/27 03:50:54;;;;;;;;;;;21.20;48.30;;;;;;486834;245;1393;-71
2022/09/27 03:52:56;;;;;;;;;;;21.30;48.10;;;;;;486839;245;1285;-71
2022/09/27 03:54:57;;;;;;;;;;;21.40;47.90;;;;;;486796;245;1168;-71
2022/09/27 03:56:58;;;;;;;;;;;21.40;47.80;;;;;;486867;244;2187;-71
2022/09/27 03:59:00;;;;;;;;;;;21.40;47.80;;;;;;486862;244;1233;-71
2022/09/27 04:01:02;;;;;;;;;;;21.30;47.90;;;;;;486820;245;1182;-71
2022/09/27 04:03:21;;;;;;;;;;;21.30;48.00;;;;;;486795;245;2124;-71
2022/09/27 04:05:23;;;;;;;;;;;21.20;48.20;;;;;;486889;244;1136;-71
2022/09/27 04:07:24;;;;;;;;;;;21.30;48.10;;;;;;486804;245;1174;-71
2022/09/27 04:09:26;;;;;;;;;;;21.50;47.80;;;;;;486904;244;1182;-71
2022/09/27 04:11:27;;;;;;;;;;;21.50;47.50;;;;;;486799;244;1205;-71
2022/09/27 04:13:28;;;;;;;;;;;21.50;47.50;;;;;;487153;244;1326;-71
2022/09/27 04:15:30;;;;;;;;;;;21.50;47.60;;;;;;486751;245;1244;-70
2022/09/27 04:17:31;;;;;;;;;;;21.40;47.70;;;;;;486818;244;2201;-71
2022/09/27 04:19:32;;;;;;;;;;;21.40;47.80;;;;;;486991;244;1232;-71
2022/09/27 04:21:34;;;;;;;;;;;21.30;48.00;;;;;;486752;244;1192;-71
2022/09/27 04:23:36;;;;;;;;;;;21.30;48.10;;;;;;486757;244;1279;-71
2022/09/27 04:25:38;;;;;;;;;;;21.20;48.20;;;;;;486688;245;1243;-71
2022/09/27 04:27:38;;;;;;;;;;;21.30;48.00;;;;;;486670;245;1544;-71
2022/09/27 04:29:42;;;;;;;;;;;21.40;47.90;;;;;;486633;245;1158;-71
2022/09/27 04:31:42;;;;;;;;;;;21.50;47.60;;;;;;486510;244;1432;-71
2022/09/27 04:33:43;;;;;;;;;;;21.50;47.50;;;;;;486390;245;1369;-71
2022/09/27 04:38:04;;;;;;;;;;;21.50;47.70;;;;;;486716;245;2158;-71
2022/09/27 04:40:05;;;;;;;;;;;21.40;47.80;;;;;;486837;244;1091;-71
2022/09/27 04:42:06;;;;;;;;;;;21.40;47.80;;;;;;486690;244;1110;-71
2022/09/27 04:44:08;;;;;;;;;;;21.40;47.80;;;;;;486872;244;1144;-71
2022/09/27 04:46:09;;;;;;;;;;;21.40;47.80;;;;;;486771;244;1056;-71
2022/09/27 04:48:10;;;;;;;;;;;21.40;47.80;;;;;;486819;244;1084;-71
2022/09/27 04:50:12;;;;;;;;;;;21.40;47.70;;;;;;486848;244;1060;-71
2022/09/27 04:52:14;;;;;;;;;;;21.40;47.60;;;;;;486816;244;1052;-74
2022/09/27 04:54:15;;;;;;;;;;;21.40;47.60;;;;;;486825;244;1094;-74
2022/09/27 04:56:16;;;;;;;;;;;21.40;47.60;;;;;;486769;245;1185;-74
2022/09/27 04:58:18;;;;;;;;;;;21.50;47.40;;;;;;486793;244;2206;-74
2022/09/27 05:00:19;;;;;;;;;;;21.60;47.40;;;;;;486658;244;1176;-74
2022/09/27 05:02:20;;;;;;;;;;;21.60;47.20;;;;;;486804;244;1123;-74
2022/09/27 05:04:22;;;;;;;;;;;21.60;47.20;;;;;;486571;244;1101;-74
2022/09/27 05:06:23;;;;;;;;;;;21.50;47.30;;;;;;486841;244;1128;-74
2022/09/27 05:08:25;;;;;;;;;;;21.40;47.40;;;;;;486721;244;1201;-74
2022/09/27 05:10:26;;;;;;;;;;;21.40;47.50;;;;;;486537;245;1120;-74
2022/09/27 05:12:27;;;;;;;;;;;21.40;47.60;;;;;;486548;245;1114;-74
2022/09/27 05:14:29;;;;;;;;;;;21.30;47.60;;;;;;486702;244;1213;-74
2022/09/27 05:16:30;;;;;;;;;;;21.30;47.70;;;;;;486325;245;1625;-74
2022/09/27 05:18:32;;;;;;;;;;;21.40;47.50;;;;;;486632;244;2154;-74
2022/09/27 05:20:33;;;;;;;;;;;21.50;47.50;;;;;;486748;245;1475;-74
2022/09/27 05:22:34;;;;;;;;;;;21.50;47.30;;;;;;486620;244;1288;-74
2022/09/27 05:24:37;;;;;;;;;;;21.50;47.30;;;;;;486864;244;1143;-74
2022/09/27 05:26:37;;;;;;;;;;;21.50;47.30;;;;;;486418;245;1509;-74
2022/09/27 05:28:40;;;;;;;;;;;21.40;47.20;;;;;;486339;244;1137;-74
2022/09/27 05:30:39;;;;;;;;;;;21.40;47.50;;;;;;486487;245;1523;-74
2022/09/27 05:32:41;;;;;;;;;;;21.40;47.40;;;;;;486382;245;1181;-74
2022/09/27 05:34:42;;;;;;;;;;;21.40;47.30;;;;;;486495;244;1100;-74
2022/09/27 05:36:43;;;;;;;;;;;21.50;47.10;;;;;;486497;245;1169;-74
2022/09/27 05:38:45;;;;;;;;;;;21.50;47.00;;;;;;486583;244;2187;-74
2022/09/27 05:40:47;;;;;;;;;;;21.50;47.00;;;;;;486751;244;1062;-74
2022/09/27 05:42:49;;;;;;;;;;;21.50;47.10;;;;;;486705;244;1191;-74
2022/09/27 05:44:49;;;;;;;;;;;21.40;47.10;;;;;;486535;245;1456;-74
2022/09/27 05:46:50;;;;;;;;;;;21.30;47.30;;;;;;486796;245;1105;-74
2022/09/27 05:48:51;;;;;;;;;;;21.30;47.40;;;;;;486804;244;1069;-74
2022/09/27 05:50:53;;;;;;;;;;;21.40;47.40;;;;;;486714;244;1226;-74
2022/09/27 05:52:54;;;;;;;;;;;21.40;47.20;;;;;;486720;244;1178;-74
2022/09/27 05:54:57;;;;;;;;;;;21.40;47.10;;;;;;486683;244;1116;-74
2022/09/27 05:56:58;;;;;;;;;;;21.50;47.10;;;;;;486571;244;1473;-74
2022/09/27 05:58:59;;;;;;;;;;;21.40;47.00;;;;;;486519;244;2107;-74
2022/09/27 06:01:00;;;;;;;;;;;21.40;47.10;;;;;;486202;244;1173;-74
2022/09/27 06:03:01;;;;;;;;;;;21.40;47.20;;;;;;486104;244;1147;-73
2022/09/27 06:05:03;;;;;;;;;;;21.30;47.20;;;;;;486497;245;1215;-73
2022/09/27 06:07:04;;;;;;;;;;;21.30;47.30;;;;;;486549;245;1155;-74
2022/09/27 06:09:06;;;;;;;;;;;21.30;47.30;;;;;;486644;244;1191;-74
2022/09/27 06:11:07;;;;;;;;;;;21.30;47.20;;;;;;486518;244;1306;-74
2022/09/27 06:13:08;;;;;;;;;;;21.40;47.10;;;;;;486528;244;1165;-74
2022/09/27 06:15:10;;;;;;;;;;;21.40;46.90;;;;;;486628;245;1209;-74
2022/09/27 06:17:11;;;;;;;;;;;21.40;46.80;;;;;;486621;245;2163;-74
2022/09/27 06:19:12;;;;;;;;;;;21.40;46.80;;;;;;486646;245;1102;-74
2022/09/27 06:21:13;;;;;;;;;;;21.40;46.90;;;;;;486576;244;1181;-74
2022/09/27 06:23:15;;;;;;;;;;;21.30;46.90;;;;;;486821;244;1287;-74
2022/09/27 06:25:16;;;;;;;;;;;21.30;46.90;;;;;;486416;245;1074;-74
2022/09/27 06:27:18;;;;;;;;;;;21.30;47.00;;;;;;486562;245;1122;-74
2022/09/27 06:29:19;;;;;;;;;;;21.20;46.90;;;;;;486579;245;1067;-74
2022/09/27 06:31:21;;;;;;;;;;;21.40;46.70;;;;;;486720;244;1225;-74
2022/09/27 06:33:22;;;;;;;;;;;21.40;46.60;;;;;;486292;245;1112;-74
2022/09/27 06:35:23;;;;;;;;;;;21.50;46.50;;;;;;486453;244;1145;-74
2022/09/27 06:37:26;;;;;;;;;;;21.50;46.40;;;;;;486292;244;2179;-74
2022/09/27 06:39:27;;;;;;;;;;;21.50;46.50;;;;;;486159;245;1224;-74
2022/09/27 06:41:28;;;;;;;;;;;21.40;46.40;;;;;;486086;244;1309;-74
2022/09/27 06:43:30;;;;;;;;;;;21.40;46.50;;;;;;486662;244;1111;-74
2022/09/27 06:45:31;;;;;;;;;;;21.30;46.60;;;;;;486358;245;1178;-74
2022/09/27 06:47:33;;;;;;;;;;;21.30;46.70;;;;;;486525;244;1117;-74
2022/09/27 06:49:34;;;;;;;;;;;21.30;46.60;;;;;;486364;244;1194;-74
2022/09/27 06:51:35;;;;;;;;;;;21.40;46.50;;;;;;486330;245;1094;-74
2022/09/27 06:53:36;;;;;;;;;;;21.50;46.30;;;;;;486351;244;1105;-74
2022/09/27 06:55:38;;;;;;;;;;;21.60;46.20;;;;;;486350;244;1153;-74
2022/09/27 07:02:18;;;;;;;;;;;21.60;46.20;;;;;;486502;245;1025;-74
2022/09/27 07:04:20;;;;;;;;;;;21.50;46.20;;;;;;486220;244;1075;-74
2022/09/27 07:06:21;;;;;;;;;;;21.50;46.30;;;;;;486620;244;1432;-74
2022/09/27 07:08:23;;;;;;;;;;;21.50;46.40;;;;;;486468;245;1207;-74
2022/09/27 07:10:24;;;;;;;;;;;21.40;46.50;;;;;;486462;245;1382;-74
2022/09/27 07:12:25;;;;;;;;;;;21.40;46.50;;;;;;486578;244;1140;-74
2022/09/27 07:14:27;;;;;;;;;;;21.40;46.40;;;;;;486559;245;1130;-74
2022/09/27 07:16:28;;;;;;;;;;;21.40;46.40;;;;;;486523;245;1118;-74
2022/09/27 07:18:29;;;;;;;;;;;21.40;46.30;;;;;;486385;245;2186;-74
2022/09/27 07:20:31;;;;;;;;;;;21.40;46.30;;;;;;486202;244;1138;-74
2022/09/27 07:22:32;;;;;;;;;;;21.40;46.40;;;;;;486477;244;1127;-74
2022/09/27 07:24:33;;;;;;;;;;;21.40;46.40;;;;;;486366;245;1115;-74
2022/09/27 07:26:35;;;;;;;;;;;21.40;46.50;;;;;;486239;244;1150;-74
2022/09/27 07:28:36;;;;;;;;;;;21.30;46.50;;;;;;486302;245;1108;-74
2022/09/27 07:30:38;;;;;;;;;;;21.40;46.40;;;;;;486356;244;1195;-74
2022/09/27 07:32:39;;;;;;;;;;;21.50;46.20;;;;;;486249;244;1099;-74
2022/09/27 07:34:40;;;;;;;;;;;21.50;46.00;;;;;;486052;245;1082;-74
2022/09/27 07:36:42;;;;;;;;;;;21.50;46.00;;;;;;486390;245;1114;-74
2022/09/27 07:38:43;;;;;;;;;;;21.50;46.00;;;;;;486383;244;2186;-74
2022/09/27 07:40:44;;;;;;;;;;;21.50;45.90;;;;;;486467;244;1114;-74
2022/09/27 07:42:46;;;;;;;;;;;21.50;45.90;;;;;;486266;245;1110;-74
2022/09/27 07:44:47;;;;;;;;;;;21.50;45.90;;;;;;486419;245;1151;-74
2022/09/27 07:46:48;;;;;;;;;;;21.50;45.90;;;;;;486320;245;1204;-74
2022/09/27 07:48:50;;;;;;;;;;;21.50;45.90;;;;;;486398;244;1191;-74
2022/09/27 07:50:51;;;;;;;;;;;21.50;45.90;;;;;;486400;244;1154;-74
2022/09/27 07:52:52;;;;;;;;;;;21.40;45.80;;;;;;486378;245;1303;-74
2022/09/27 07:54:54;;;;;;;;;;;21.40;45.70;;;;;;486357;245;1354;-74
2022/09/27 07:56:55;;;;;;;;;;;21.40;45.70;;;;;;486379;245;1208;-74
2022/09/27 07:58:57;;;;;;;;;;;21.40;45.70;;;;;;486250;245;2206;-74
2022/09/27 08:00:58;;;;;;;;;;;21.50;45.60;;;;;;486293;245;1202;-74
2022/09/27 08:02:59;;;;;;;;;;;21.70;45.50;;;;;;486245;245;1158;-74
2022/09/27 08:05:00;;;;;;;;;;;21.70;45.40;;;;;;486149;244;1227;-74
2022/09/27 08:07:02;;;;;;;;;;;21.60;45.40;;;;;;486111;244;1301;-74
2022/09/27 08:09:03;;;;;;;;;;;21.60;45.40;;;;;;486140;245;1266;-74
2022/09/27 08:11:04;;;;;;;;;;;21.60;45.50;;;;;;486271;244;1175;-74
2022/09/27 08:13:06;;;;;;;;;;;21.60;45.60;;;;;;486269;245;1280;-74
2022/09/27 08:15:07;;;;;;;;;;;21.60;45.60;;;;;;486128;244;1108;-74
2022/09/27 08:17:09;;;;;;;;;;;21.50;45.60;;;;;;486266;245;1303;-74
2022/09/27 08:19:10;;;;;;;;;;;21.50;45.50;;;;;;486286;244;2159;-74
2022/09/27 08:21:12;;;;;;;;;;;21.50;45.50;;;;;;486329;245;1195;-74
2022/09/27 08:23:13;;;;;;;;;;;21.50;45.50;;;;;;486306;244;1150;-74
2022/09/27 08:25:14;;;;;;;;;;;21.50;45.60;;;;;;486454;244;1155;-74
2022/09/27 08:27:16;;;;;;;;;;;21.50;45.50;;;;;;486260;245;1328;-74
2022/09/27 08:29:17;;;;;;;;;;;21.50;45.50;;;;;;486303;244;1172;-74
2022/09/27 08:31:18;;;;;;;;;;;21.50;45.60;;;;;;486202;244;1235;-74
2022/09/27 08:33:20;;;;;;;;;;;21.40;45.60;;;;;;485974;245;1216;-74
2022/09/27 08:35:21;;;;;;;;;;;21.40;45.60;;;;;;486405;245;1144;-74
2022/09/27 08:37:23;;;;;;;;;;;21.40;45.60;;;;;;486385;245;1154;-74
2022/09/27 08:39:24;;;;;;;;;;;21.30;45.50;;;;;;486380;244;2206;-74
2022/09/27 08:41:25;;;;;;;;;;;21.30;45.80;;;;;;486442;245;1351;-74
2022/09/27 08:43:27;;;;;;;;;;;21.40;45.70;;;;;;486366;245;1114;-74
2022/09/27 08:45:28;;;;;;;;;;;21.40;45.70;;;;;;485739;244;1181;-74
2022/09/27 08:47:30;;;;;;;;;;;21.50;45.60;;;;;;486088;245;1222;-74
2022/09/27 08:49:31;;;;;;;;;;;21.50;45.60;;;;;;486121;244;1430;-74
2022/09/27 08:51:32;;;;;;;;;;;21.40;45.60;;;;;;486352;245;1076;-74
2022/09/27 08:53:33;;;;;;;;;;;21.40;45.70;;;;;;485935;244;1133;-74
2022/09/27 08:55:36;;;;;;;;;;;21.40;45.70;;;;;;486030;245;1052;-74
2022/09/27 08:57:36;;;;;;;;;;;21.30;45.90;;;;;;486100;244;1333;-74
2022/09/27 08:59:38;;;;;;;;;;;21.30;45.80;;;;;;486324;245;2147;-74
2022/09/27 09:01:40;;;;;;;;;;;21.30;45.70;;;;;;486347;244;1264;-74
2022/09/27 09:03:40;;;;;;;;;;;21.40;45.50;;;;;;486234;244;1353;-74
2022/09/27 09:05:42;;;;;;;;;;;21.40;45.70;;;;;;486356;245;1152;-74
2022/09/27 09:07:43;;;;;;;;;;;21.50;45.50;;;;;;486531;244;1184;-74
2022/09/27 09:09:45;;;;;;;;;;;21.50;45.40;;;;;;486375;245;1157;-74
2022/09/27 09:14:05;;;;;;;;;;;21.50;45.50;;;;;;486397;245;1259;-74
2022/09/27 09:16:06;;;;;;;;;;;21.50;45.60;;;;;;486403;245;1292;-74
2022/09/27 09:18:08;;;;;;;;;;;21.50;45.60;;;;;;486351;245;1091;-74
2022/09/27 09:20:10;;;;;;;;;;;21.40;45.70;;;;;;486357;244;1072;-74
2022/09/27 09:22:11;;;;;;;;;;;21.40;45.90;;;;;;486403;244;1069;-74
2022/09/27 09:24:12;;;;;;;;;;;21.40;46.00;;;;;;486222;245;1071;-74
2022/09/27 09:26:13;;;;;;;;;;;21.40;45.90;;;;;;486385;244;1087;-74
2022/09/27 09:28:15;;;;;;;;;;;21.40;45.80;;;;;;486344;244;1133;-74
2022/09/27 09:30:17;;;;;;;;;;;21.60;45.70;;;;;;486361;244;1159;-74
2022/09/27 09:32:17;;;;;;;;;;;21.60;45.50;;;;;;486403;245;1432;-74
2022/09/27 09:34:19;;;;;;;;;;;21.70;45.50;;;;;;486267;244;1072;-74
2022/09/27 09:36:20;;;;;;;;;;;21.50;45.60;;;;;;486459;245;1057;-74
2022/09/27 09:38:22;;;;;;;;;;;21.50;45.70;;;;;;486381;244;2179;-74
2022/09/27 09:40:23;;;;;;;;;;;21.50;45.80;;;;;;486506;244;1155;-74
2022/09/27 09:42:24;;;;;;;;;;;21.40;45.80;;;;;;486645;244;1230;-74
2022/09/27 09:44:25;;;;;;;;;;;21.40;45.80;;;;;;486466;244;1092;-74
2022/09/27 09:46:27;;;;;;;;;;;21.40;45.80;;;;;;486547;244;1145;-74
2022/09/27 09:48:28;;;;;;;;;;;21.40;45.70;;;;;;486594;245;1158;-74
2022/09/27 09:50:30;;;;;;;;;;;21.50;45.70;;;;;;486501;244;1165;-74
2022/09/27 09:52:31;;;;;;;;;;;21.40;45.70;;;;;;486474;244;1176;-74
2022/09/27 09:54:33;;;;;;;;;;;21.60;45.60;;;;;;486385;245;1205;-74
2022/09/27 09:56:34;;;;;;;;;;;21.70;45.20;;;;;;486500;244;1172;-74
2022/09/27 09:58:35;;;;;;;;;;;21.90;44.80;;;;;;486482;244;2243;-74
2022/09/27 10:00:37;;;;;;;;;;;22.00;44.50;;;;;;486461;245;1207;-74
2022/09/27 10:02:38;;;;;;;;;;;22.00;44.40;;;;;;486322;244;1197;-74
2022/09/27 10:04:39;;;;;;;;;;;22.10;44.20;;;;;;486485;245;1082;-74
2022/09/27 10:06:41;;;;;;;;;;;22.20;44.00;;;;;;486607;244;1134;-75
2022/09/27 10:08:42;;;;;;;;;;;22.30;43.90;;;;;;486650;245;1097;-74
2022/09/27 10:10:43;;;;;;;;;;;22.30;43.90;;;;;;486573;244;1128;-74
2022/09/27 10:12:45;;;;;;;;;;;22.30;43.70;;;;;;486558;245;1172;-74
2022/09/27 10:14:46;;;;;;;;;;;22.30;43.60;;;;;;486431;245;1232;-74
2022/09/27 10:16:47;;;;;;;;;;;22.40;43.50;;;;;;486565;245;1190;-74
2022/09/27 10:18:49;;;;;;;;;;;22.30;43.40;;;;;;486572;245;2202;-74
2022/09/27 10:20:50;;;;;;;;;;;22.30;43.40;;;;;;486637;244;1151;-74
2022/09/27 10:22:53;;;;;;;;;;;22.30;43.40;;;;;;486603;245;1149;-74
2022/09/27 10:24:53;;;;;;;;;;;22.40;43.20;;;;;;486552;245;1407;-75
2022/09/27 10:26:54;;;;;;;;;;;22.50;43.30;;;;;;486632;244;1224;-74
2022/09/27 10:28:55;;;;;;;;;;;22.50;43.10;;;;;;486631;245;1217;-74
2022/09/27 10:30:57;;;;;;;;;;;22.40;43.20;;;;;;486513;244;1103;-74
2022/09/27 10:32:58;;;;;;;;;;;22.30;43.40;;;;;;486382;244;1207;-74
2022/09/27 10:34:59;;;;;;;;;;;22.10;43.60;;;;;;486604;244;1171;-74
2022/09/27 10:37:01;;;;;;;;;;;22.00;43.70;;;;;;486511;245;1166;-74
2022/09/27 10:39:03;;;;;;;;;;;21.90;44.00;;;;;;486504;244;2194;-74
2022/09/27 10:41:03;;;;;;;;;;;21.90;44.00;;;;;;486523;244;1187;-74
2022/09/27 10:43:05;;;;;;;;;;;21.90;44.00;;;;;;486585;245;1085;-74
2022/09/27 10:45:06;;;;;;;;;;;22.00;43.60;;;;;;486492;244;1055;-74
2022/09/27 10:47:07;;;;;;;;;;;22.10;43.40;;;;;;486597;244;1162;-74
2022/09/27 10:49:09;;;;;;;;;;;22.20;43.30;;;;;;486503;245;1077;-74
2022/09/27 10:51:10;;;;;;;;;;;22.30;43.20;;;;;;486426;244;1141;-74
2022/09/27 10:53:11;;;;;;;;;;;22.30;43.00;;;;;;486556;245;1269;-74
2022/09/27 10:55:13;;;;;;;;;;;22.40;43.00;;;;;;486553;244;1060;-74
2022/09/27 10:57:14;;;;;;;;;;;22.40;42.80;;;;;;486548;245;1106;-74
2022/09/27 10:59:16;;;;;;;;;;;22.30;42.80;;;;;;486672;244;2235;-74
2022/09/27 11:01:17;;;;;;;;;;;22.20;43.00;;;;;;486409;245;1146;-74
2022/09/27 11:03:18;;;;;;;;;;;22.10;43.10;;;;;;486314;244;1154;-74
2022/09/27 11:05:20;;;;;;;;;;;22.00;43.10;;;;;;486345;245;1088;-74
2022/09/27 11:07:22;;;;;;;;;;;22.00;43.20;;;;;;485991;245;1115;-74
2022/09/27 11:09:25;;;;;;;;;;;22.20;43.10;;;;;;486456;245;1271;-74
2022/09/27 11:11:24;;;;;;;;;;;22.30;42.90;;;;;;486268;245;1438;-74
2022/09/27 11:13:27;;;;;;;;;;;22.40;42.60;;;;;;486389;245;1109;-74
2022/09/27 11:15:27;;;;;;;;;;;22.40;42.40;;;;;;486175;245;1431;-74
2022/09/27 11:17:29;;;;;;;;;;;22.50;42.40;;;;;;486348;244;1152;-74
2022/09/27 11:19:30;;;;;;;;;;;22.60;42.30;;;;;;486313;245;2206;-74
2022/09/27 11:21:33;;;;;;;;;;;22.60;42.20;;;;;;486410;244;1115;-75
2022/09/27 11:23:33;;;;;;;;;;;22.50;42.20;;;;;;486332;245;1493;-74
2022/09/27 11:25:37;;;;;;;;;;;22.50;42.20;;;;;;486556;244;1154;-74
2022/09/27 11:27:35;;;;;;;;;;;22.40;42.40;;;;;;486107;245;1528;-74
2022/09/27 11:29:37;;;;;;;;;;;22.40;42.60;;;;;;486421;245;1298;-74
2022/09/27 11:31:38;;;;;;;;;;;22.40;42.50;;;;;;486541;244;1088;-74
2022/09/27 11:33:39;;;;;;;;;;;22.30;42.50;;;;;;486236;244;1253;-74
2022/09/27 11:35:45;;;;;;;;;;;22.30;42.50;;;;;;486263;244;1192;-74
2022/09/27 11:37:42;;;;;;;;;;;22.40;42.50;;;;;;486342;245;1490;-74
2022/09/27 11:39:44;;;;;;;;;;;22.30;42.60;;;;;;486419;244;2183;-74
2022/09/27 11:41:45;;;;;;;;;;;22.30;42.50;;;;;;486432;245;1187;-74
2022/09/27 11:43:47;;;;;;;;;;;22.30;42.60;;;;;;486398;245;1230;-74
2022/09/27 11:45:48;;;;;;;;;;;22.30;42.60;;;;;;486495;244;1153;-73
2022/09/27 11:47:49;;;;;;;;;;;22.30;42.70;;;;;;486381;245;1158;-74
2022/09/27 11:49:51;;;;;;;;;;;22.20;42.90;;;;;;486612;244;1165;-74
2022/09/27 11:51:52;;;;;;;;;;;22.30;42.70;;;;;;486418;245;1175;-74
2022/09/27 11:53:53;;;;;;;;;;;22.50;42.40;;;;;;486408;244;1158;-74
2022/09/27 11:55:55;;;;;;;;;;;22.50;42.10;;;;;;486433;244;1198;-74
2022/09/27 11:57:56;;;;;;;;;;;22.60;42.00;;;;;;486525;245;1146;-74
2022/09/27 11:59:57;;;;;;;;;;;22.60;41.80;;;;;;486458;245;2150;-74
2022/09/27 12:01:59;;;;;;;;;;;22.80;41.50;;;;;;486476;244;1439;-74
2022/09/27 12:04:00;;;;;;;;;;;22.80;41.60;;;;;;486371;245;1064;-74
2022/09/27 12:06:01;;;;;;;;;;;22.70;41.60;;;;;;486483;244;1212;-74